Time;durP1;ratioP1;P1;durP2;ratioP2;P2;SDS_P1;SDS_P2;PMS_P1;PMS_P2;Temp;Humidity;BMP_temperature;BMP_pressure;BME280_temperature;BME280_humidity;BME280_pressure;Samples;Min_cycle;Max_cycle;Signal;HPM_P1;HPM_P2
2023/03/13 00:02:07;;;;;;;10.60;2.80;;;12.50;99.90;;;;;;6123912;29;20052;-79
2023/03/13 00:05:09;;;;;;;8.73;3.25;;;12.50;99.90;;;;;;6124419;29;20047;-79
2023/03/13 00:08:11;;;;;;;9.05;3.03;;;12.60;99.90;;;;;;6126158;29;20052;-79
2023/03/13 00:11:15;;;;;;;6.68;2.53;;;12.60;99.90;;;;;;6128089;29;20060;-79
2023/03/13 00:14:18;;;;;;;7.90;2.42;;;12.60;99.90;;;;;;6127339;29;20057;-79
2023/03/13 00:17:19;;;;;;;15.60;3.08;;;12.60;99.90;;;;;;6127105;29;20075;-79
2023/03/13 00:20:21;;;;;;;11.63;2.60;;;12.60;99.90;;;;;;6131885;29;20047;-79
2023/03/13 00:23:23;;;;;;;8.05;2.67;;;12.60;99.90;;;;;;6134428;29;20047;-79
2023/03/13 00:26:26;;;;;;;10.45;2.28;;;12.60;99.90;;;;;;6133564;29;20043;-79
2023/03/13 00:29:30;;;;;;;6.45;2.83;;;12.60;99.90;;;;;;6132325;29;20052;-79
2023/03/13 00:32:33;;;;;;;9.35;3.13;;;12.70;99.90;;;;;;6134455;29;20051;-79
2023/03/13 00:35:34;;;;;;;17.30;3.28;;;12.70;99.90;;;;;;6129754;29;20040;-78
2023/03/13 00:38:37;;;;;;;5.70;2.03;;;12.70;99.90;;;;;;6131851;29;20047;-79
2023/03/13 00:41:38;;;;;;;11.48;2.47;;;12.70;99.90;;;;;;6134392;29;20060;-79
2023/03/13 00:44:41;;;;;;;4.93;3.35;;;12.70;99.90;;;;;;6133205;28;20039;-79
2023/03/13 00:47:43;;;;;;;10.13;2.47;;;12.70;99.90;;;;;;6135067;29;20051;-79
2023/03/13 00:50:44;;;;;;;10.27;1.73;;;12.80;99.90;;;;;;6132612;29;20048;-79
2023/03/13 00:53:47;;;;;;;8.60;2.85;;;12.70;99.90;;;;;;6132988;29;20051;-79
2023/03/13 00:56:49;;;;;;;8.05;2.05;;;12.70;99.90;;;;;;6132861;29;20066;-79
2023/03/13 00:59:52;;;;;;;9.80;2.33;;;12.70;99.90;;;;;;6130796;29;20059;-79
2023/03/13 01:02:53;;;;;;;7.60;1.73;;;12.80;99.90;;;;;;6130235;29;20062;-79
2023/03/13 01:05:56;;;;;;;6.38;1.88;;;12.70;99.90;;;;;;6129276;29;20059;-79
2023/03/13 01:08:59;;;;;;;6.20;2.03;;;12.70;99.90;;;;;;6131406;29;20055;-79
2023/03/13 01:12:00;;;;;;;7.28;3.03;;;12.70;99.90;;;;;;6131713;29;20052;-79
2023/03/13 01:15:04;;;;;;;8.77;2.40;;;12.70;99.90;;;;;;6130092;29;20054;-79
2023/03/13 01:18:06;;;;;;;10.20;1.73;;;12.70;99.90;;;;;;6131087;29;20414;-79
2023/03/13 01:21:08;;;;;;;3.63;1.50;;;12.70;99.90;;;;;;6128852;29;20047;-80
2023/03/13 01:24:10;;;;;;;5.65;2.40;;;12.80;99.90;;;;;;6130120;29;20040;-79
2023/03/13 01:27:11;;;;;;;5.95;1.60;;;12.80;99.90;;;;;;6127486;29;20048;-80
2023/03/13 01:30:15;;;;;;;7.00;3.70;;;12.80;99.90;;;;;;6130407;29;20043;-79
2023/03/13 01:33:17;;;;;;;4.03;1.60;;;12.80;99.80;;;;;;6128396;29;20055;-79
2023/03/13 01:36:18;;;;;;;6.65;2.22;;;12.90;99.70;;;;;;6126311;28;20052;-79
2023/03/13 01:39:20;;;;;;;5.35;1.58;;;12.80;99.70;;;;;;6131168;28;20131;-79
2023/03/13 01:42:22;;;;;;;6.03;2.03;;;12.90;99.60;;;;;;6127902;29;20055;-79
2023/03/13 01:46:01;;;;;;;4.00;1.67;;;12.90;99.60;;;;;;6128671;29;20062;-79
2023/03/13 01:49:06;;;;;;;6.97;2.30;;;12.90;99.80;;;;;;6130100;29;20432;-79
2023/03/13 01:52:11;;;;;;;7.28;2.20;;;12.90;99.90;;;;;;6128664;29;20047;-80
2023/03/13 01:55:17;;;;;;;8.98;2.47;;;12.90;99.90;;;;;;6129751;29;20064;-79
2023/03/13 01:58:18;;;;;;;4.47;1.73;;;12.80;99.90;;;;;;6129131;29;20044;-78
2023/03/13 02:01:23;;;;;;;7.97;1.67;;;12.80;99.90;;;;;;6126986;29;20403;-79
2023/03/13 02:04:27;;;;;;;5.25;1.92;;;12.70;99.90;;;;;;6128783;29;20060;-80
2023/03/13 02:07:35;;;;;;;4.68;1.30;;;12.60;99.90;;;;;;6133170;29;20411;-78
2023/03/13 02:10:44;;;;;;;4.65;1.25;;;12.60;99.90;;;;;;6128328;29;20050;-79
2023/03/13 02:13:48;;;;;;;6.32;1.58;;;12.50;99.90;;;;;;6155236;28;20058;-80
2023/03/13 02:16:52;;;;;;;3.83;1.30;;;12.50;99.90;;;;;;6156491;28;20055;-79
2023/03/13 02:19:54;;;;;;;4.63;1.83;;;12.40;99.90;;;;;;6155443;28;20051;-79
2023/03/13 02:23:02;;;;;;;7.75;1.60;;;12.30;99.90;;;;;;6154057;28;20063;-80
2023/03/13 02:26:06;;;;;;;2.65;1.67;;;12.30;99.90;;;;;;6153103;28;20513;-79
2023/03/13 02:29:16;;;;;;;4.70;1.73;;;12.30;99.90;;;;;;6152059;28;20244;-78
2023/03/13 02:32:18;;;;;;;7.60;1.63;;;12.20;99.90;;;;;;6154029;28;20050;-79
2023/03/13 02:35:22;;;;;;;6.95;1.98;;;12.20;99.90;;;;;;6154174;28;20055;-79
2023/03/13 02:38:27;;;;;;;2.58;1.10;;;12.20;99.90;;;;;;6150887;28;20054;-79
2023/03/13 02:41:31;;;;;;;2.85;1.08;;;12.20;99.90;;;;;;6156390;28;20052;-79
2023/03/13 02:44:38;;;;;;;10.98;2.20;;;12.20;99.90;;;;;;6155641;28;20074;-80
2023/03/13 02:47:39;;;;;;;4.07;1.33;;;12.20;99.90;;;;;;6156131;28;20058;-80
2023/03/13 02:50:41;;;;;;;3.53;0.93;;;12.30;99.90;;;;;;6156842;28;20602;-80
2023/03/13 02:53:44;;;;;;;2.65;1.05;;;12.40;99.90;;;;;;6160141;28;20055;-80
2023/03/13 02:56:51;;;;;;;10.93;1.77;;;12.40;99.90;;;;;;6161766;28;20051;-79
2023/03/13 02:59:52;;;;;;;1.90;1.33;;;12.50;99.90;;;;;;6159870;28;20505;-79
2023/03/13 03:02:55;;;;;;;6.47;1.27;;;12.50;99.90;;;;;;6163162;28;20493;-79
2023/03/13 03:05:56;;;;;;;3.15;1.05;;;12.60;99.90;;;;;;6159290;28;20054;-79
2023/03/13 03:08:58;;;;;;;6.05;1.98;;;12.60;99.90;;;;;;6159351;28;20055;-79
2023/03/13 03:12:01;;;;;;;3.17;1.27;;;12.70;99.90;;;;;;6162396;28;20055;-79
2023/03/13 03:15:04;;;;;;;3.95;0.95;;;12.70;99.90;;;;;;6160405;28;20054;-80
2023/03/13 03:18:05;;;;;;;5.57;1.27;;;12.70;99.90;;;;;;6162532;28;20113;-80
2023/03/13 03:21:07;;;;;;;2.63;0.88;;;12.70;99.90;;;;;;6160933;28;20072;-79
2023/03/13 03:24:09;;;;;;;1.77;1.20;;;12.70;99.90;;;;;;6157871;28;22666;-79
2023/03/13 03:27:12;;;;;;;3.80;1.38;;;12.60;99.90;;;;;;6160641;28;20051;-80
2023/03/13 03:30:15;;;;;;;3.05;1.25;;;12.60;99.90;;;;;;6164613;28;20058;-79
2023/03/13 03:33:16;;;;;;;7.53;1.40;;;12.60;99.90;;;;;;6161024;28;20039;-79
2023/03/13 03:36:20;;;;;;;3.63;0.70;;;12.60;99.90;;;;;;6163160;28;20058;-80
2023/03/13 03:39:22;;;;;;;3.35;1.05;;;12.60;99.90;;;;;;6155567;28;20047;-79
2023/03/13 03:42:25;;;;;;;3.72;1.83;;;12.50;99.90;;;;;;6163620;28;20059;-79
2023/03/13 03:45:26;;;;;;;1.63;0.70;;;12.50;99.90;;;;;;6161938;28;20059;-79
2023/03/13 03:48:28;;;;;;;3.72;1.17;;;12.50;99.90;;;;;;6160844;28;20043;-79
2023/03/13 03:51:30;;;;;;;1.95;1.15;;;12.60;99.90;;;;;;6157481;28;20043;-79
2023/03/13 03:54:32;;;;;;;7.97;1.42;;;12.50;99.90;;;;;;6158312;28;20090;-79
2023/03/13 03:57:35;;;;;;;4.85;0.93;;;12.50;99.90;;;;;;6161423;28;20062;-79
2023/03/13 04:00:36;;;;;;;4.85;1.08;;;12.60;99.90;;;;;;6162017;28;20051;-79
2023/03/13 04:03:38;;;;;;;1.42;1.17;;;12.60;99.90;;;;;;6160610;28;20054;-79
2023/03/13 04:06:40;;;;;;;3.15;0.95;;;12.60;99.90;;;;;;6160201;28;20058;-79
2023/03/13 04:09:41;;;;;;;1.13;0.98;;;12.60;99.90;;;;;;6162133;28;20040;-79
2023/03/13 04:12:45;;;;;;;2.25;1.15;;;12.70;99.90;;;;;;6162824;28;20042;-79
2023/03/13 04:15:47;;;;;;;3.25;1.23;;;12.70;99.90;;;;;;6157086;28;20069;-78
2023/03/13 04:18:49;;;;;;;2.58;1.17;;;12.70;99.90;;;;;;6157464;28;20051;-78
2023/03/13 04:21:50;;;;;;;3.28;1.02;;;12.80;99.90;;;;;;6161134;28;20063;-79
2023/03/13 04:24:52;;;;;;;1.02;0.90;;;12.80;99.90;;;;;;6160414;28;20049;-80
2023/03/13 04:27:56;;;;;;;2.55;0.80;;;12.90;99.90;;;;;;6156310;28;20438;-79
2023/03/13 04:30:57;;;;;;;4.30;1.08;;;12.90;99.90;;;;;;6159964;28;20050;-79
2023/03/13 04:33:59;;;;;;;1.35;1.00;;;12.90;99.90;;;;;;6159276;28;20055;-79
2023/03/13 04:37:01;;;;;;;1.52;1.42;;;12.90;99.90;;;;;;6157640;28;20054;-79
2023/03/13 04:40:03;;;;;;;0.70;0.70;;;13.00;99.90;;;;;;6154366;28;20086;-79
2023/03/13 04:43:06;;;;;;;3.03;1.30;;;13.00;99.90;;;;;;6160829;28;20067;-80
2023/03/13 04:46:08;;;;;;;3.95;1.17;;;13.00;99.90;;;;;;6158842;28;20055;-79
2023/03/13 04:49:10;;;;;;;4.65;1.13;;;13.00;99.90;;;;;;6158803;28;20050;-79
2023/03/13 04:52:12;;;;;;;1.55;1.05;;;13.00;99.90;;;;;;6159272;28;20317;-79
2023/03/13 04:55:13;;;;;;;2.75;1.25;;;13.10;99.90;;;;;;6161570;28;20397;-78
2023/03/13 04:58:16;;;;;;;4.35;1.15;;;13.10;99.90;;;;;;6158441;28;20054;-78
2023/03/13 05:01:18;;;;;;;4.03;1.10;;;13.10;99.90;;;;;;6155263;28;20039;-80
2023/03/13 05:04:20;;;;;;;4.75;3.28;;;13.20;99.90;;;;;;6156155;28;20055;-79
2023/03/13 05:07:22;;;;;;;2.83;1.10;;;13.20;99.90;;;;;;6156295;28;20040;-79
2023/03/13 05:10:23;;;;;;;0.90;0.75;;;13.20;99.90;;;;;;6157992;28;20047;-79
2023/03/13 05:13:26;;;;;;;1.48;0.90;;;13.10;99.90;;;;;;6158058;28;20040;-80
2023/03/13 05:16:28;;;;;;;1.48;0.52;;;12.90;99.90;;;;;;6155928;28;20051;-80
2023/03/13 05:19:30;;;;;;;2.13;0.88;;;12.70;99.90;;;;;;6159331;28;20043;-81
2023/03/13 05:22:31;;;;;;;0.65;0.60;;;12.60;99.90;;;;;;6161191;28;20057;-80
2023/03/13 05:25:33;;;;;;;1.70;1.00;;;12.60;99.90;;;;;;6160101;28;20051;-80
2023/03/13 05:28:36;;;;;;;1.65;0.77;;;12.50;99.90;;;;;;6158781;28;20059;-80
2023/03/13 05:31:38;;;;;;;1.17;0.73;;;12.60;99.90;;;;;;6162456;28;20063;-81
2023/03/13 05:34:39;;;;;;;3.03;1.10;;;12.60;99.90;;;;;;6162150;28;20051;-79
2023/03/13 05:37:41;;;;;;;0.52;0.52;;;12.70;99.90;;;;;;6159426;28;20050;-80
2023/03/13 05:40:43;;;;;;;0.80;0.70;;;12.70;99.90;;;;;;6159414;28;20052;-79
2023/03/13 05:43:46;;;;;;;1.30;0.60;;;12.70;99.90;;;;;;6158295;28;20054;-80
2023/03/13 05:46:47;;;;;;;1.90;0.70;;;12.70;99.90;;;;;;6160192;28;20057;-79
2023/03/13 05:49:49;;;;;;;1.92;0.90;;;12.80;99.90;;;;;;6161888;28;20055;-80
2023/03/13 05:52:51;;;;;;;1.75;0.93;;;12.80;99.90;;;;;;6160755;28;20047;-80
2023/03/13 05:55:52;;;;;;;0.73;0.73;;;12.90;99.90;;;;;;6154691;28;20050;-80
2023/03/13 05:58:55;;;;;;;1.02;0.50;;;12.90;99.90;;;;;;6157534;28;20054;-80
2023/03/13 06:01:57;;;;;;;0.47;0.47;;;12.90;99.90;;;;;;6159545;28;20070;-80
2023/03/13 06:04:59;;;;;;;1.10;0.98;;;12.90;99.90;;;;;;6164860;28;20043;-80
2023/03/13 06:08:01;;;;;;;1.05;0.95;;;12.90;99.90;;;;;;6162894;28;20053;-80
2023/03/13 06:11:03;;;;;;;2.38;0.32;;;13.00;99.90;;;;;;6164324;28;20407;-79
2023/03/13 06:14:06;;;;;;;1.55;0.77;;;13.00;99.90;;;;;;6163341;28;20053;-80
2023/03/13 06:17:08;;;;;;;1.00;0.50;;;13.10;99.90;;;;;;6165462;28;20055;-80
2023/03/13 06:20:11;;;;;;;0.93;0.63;;;13.20;99.90;;;;;;6162791;28;20050;-80
2023/03/13 06:23:13;;;;;;;0.68;0.68;;;13.20;99.90;;;;;;6174168;23;20055;-83
2023/03/13 06:26:14;;;;;;;2.80;2.42;;;13.20;99.90;;;;;;6122145;29;20055;-79
2023/03/13 06:29:17;;;;;;;0.77;0.57;;;13.20;99.90;;;;;;6125377;29;20062;-81
2023/03/13 06:32:19;;;;;;;0.85;0.70;;;13.30;99.90;;;;;;6124928;29;20055;-79
2023/03/13 06:35:21;;;;;;;0.63;0.63;;;13.20;99.90;;;;;;6131072;29;20055;-81
2023/03/13 06:38:22;;;;;;;0.70;0.70;;;13.20;99.90;;;;;;6145376;28;20139;-83
2023/03/13 06:41:24;;;;;;;1.08;0.50;;;13.20;99.90;;;;;;6147199;28;20039;-83
2023/03/13 06:44:27;;;;;;;2.08;0.73;;;13.20;99.90;;;;;;6149005;28;20050;-82
2023/03/13 06:47:30;;;;;;;1.52;0.63;;;13.20;99.90;;;;;;6147577;28;20406;-83
2023/03/13 06:50:32;;;;;;;0.82;0.80;;;13.20;99.90;;;;;;6147076;28;20141;-80
2023/03/13 06:53:34;;;;;;;3.28;0.50;;;13.20;99.90;;;;;;6146266;28;20039;-82
2023/03/13 06:56:36;;;;;;;0.77;0.77;;;13.20;99.90;;;;;;6147456;28;20043;-81
2023/03/13 06:59:39;;;;;;;1.63;0.70;;;13.20;99.90;;;;;;6149697;28;20039;-84
2023/03/13 07:02:41;;;;;;;1.00;0.68;;;13.20;99.90;;;;;;6148570;28;20098;-84
2023/03/13 07:05:42;;;;;;;0.90;0.80;;;13.30;99.90;;;;;;6150437;28;20059;-84
2023/03/13 07:08:44;;;;;;;1.20;0.80;;;13.30;99.90;;;;;;6149034;28;20047;-83
2023/03/13 07:11:46;;;;;;;1.65;1.15;;;13.30;99.90;;;;;;6149464;28;20045;-81
2023/03/13 07:14:49;;;;;;;1.02;0.70;;;13.40;99.90;;;;;;6149145;28;20466;-84
2023/03/13 07:17:51;;;;;;;1.67;1.42;;;13.40;99.90;;;;;;6148430;28;20062;-82
2023/03/13 07:20:54;;;;;;;2.88;0.75;;;13.40;99.90;;;;;;6146933;28;20059;-82
2023/03/13 07:23:56;;;;;;;0.85;0.68;;;13.50;99.90;;;;;;6145238;28;20043;-82
2023/03/13 07:26:57;;;;;;;1.33;0.80;;;13.60;99.90;;;;;;6146386;28;20059;-82
2023/03/13 07:30:00;;;;;;;2.40;0.95;;;13.60;99.90;;;;;;6150518;28;20054;-84
2023/03/13 07:33:02;;;;;;;2.05;0.90;;;13.70;99.90;;;;;;6144966;28;20049;-84
2023/03/13 07:36:04;;;;;;;1.80;0.75;;;13.70;99.90;;;;;;6150554;28;20403;-83
2023/03/13 07:39:06;;;;;;;2.20;0.60;;;13.80;99.90;;;;;;6148123;28;20047;-84
2023/03/13 07:42:09;;;;;;;0.60;0.60;;;13.90;99.90;;;;;;6146748;28;20062;-84
2023/03/13 07:45:13;;;;;;;2.55;0.77;;;13.90;99.90;;;;;;6148031;28;20046;-85
2023/03/13 07:48:14;;;;;;;0.75;0.75;;;14.00;99.90;;;;;;6147470;28;20059;-82
2023/03/13 07:51:18;;;;;;;1.17;0.70;;;14.10;99.90;;;;;;6147747;28;20478;-82
2023/03/13 07:54:19;;;;;;;0.80;0.70;;;14.20;99.90;;;;;;6146518;28;20043;-83
2023/03/13 07:57:21;;;;;;;0.90;0.60;;;14.30;99.90;;;;;;6147841;28;20466;-82
2023/03/13 08:00:25;;;;;;;0.70;0.70;;;14.50;99.90;;;;;;6148965;28;20428;-84
2023/03/13 08:03:27;;;;;;;2.67;1.30;;;14.70;99.90;;;;;;6147147;28;20050;-81
2023/03/13 08:06:31;;;;;;;0.77;0.63;;;14.80;99.90;;;;;;6145855;28;20047;-83
2023/03/13 08:09:33;;;;;;;4.30;1.00;;;15.00;99.90;;;;;;6142711;28;20043;-87
2023/03/13 08:12:34;;;;;;;0.55;0.55;;;15.00;99.90;;;;;;6147613;28;20058;-84
2023/03/13 08:15:38;;;;;;;0.77;0.70;;;15.00;99.90;;;;;;6141876;28;20043;-84
2023/03/13 08:18:42;;;;;;;1.35;0.60;;;15.00;99.90;;;;;;6142270;28;20423;-86
2023/03/13 08:21:44;;;;;;;4.72;0.90;;;15.00;99.90;;;;;;6141076;29;20052;-84
2023/03/13 08:24:45;;;;;;;0.95;0.50;;;15.10;99.90;;;;;;6143224;28;20155;-86
2023/03/13 08:27:47;;;;;;;0.90;0.85;;;15.20;99.90;;;;;;6139697;28;20047;-83
2023/03/13 08:30:50;;;;;;;0.68;0.63;;;15.20;99.90;;;;;;6146990;28;20131;-85
2023/03/13 08:33:52;;;;;;;1.13;0.80;;;15.10;99.90;;;;;;6120061;29;20048;-86
2023/03/13 08:36:54;;;;;;;0.90;0.85;;;15.10;99.90;;;;;;6123678;29;20059;-84
2023/03/13 08:39:55;;;;;;;1.85;0.60;;;15.10;99.90;;;;;;6135879;29;20062;-83
2023/03/13 08:42:57;;;;;;;1.73;0.70;;;15.10;99.90;;;;;;6147270;29;20414;-85
2023/03/13 08:46:00;;;;;;;2.30;0.57;;;15.10;99.90;;;;;;6144624;28;20378;-85
2023/03/13 08:49:03;;;;;;;2.35;0.52;;;15.10;99.90;;;;;;6147790;28;20131;-86
2023/03/13 08:52:06;;;;;;;0.75;0.75;;;15.10;99.90;;;;;;6142299;28;20046;-85
2023/03/13 08:55:08;;;;;;;1.30;0.85;;;15.10;99.90;;;;;;6146521;28;20064;-86
2023/03/13 08:58:10;;;;;;;0.90;0.90;;;15.20;99.90;;;;;;6147323;28;20405;-84
2023/03/13 09:01:15;;;;;;;0.60;0.50;;;15.30;99.90;;;;;;6139901;28;20434;-82
2023/03/13 09:04:16;;;;;;;2.75;0.80;;;15.30;99.90;;;;;;6130250;28;20044;-84
2023/03/13 09:07:18;;;;;;;0.93;0.80;;;15.30;99.90;;;;;;6122865;28;20047;-87
2023/03/13 09:10:20;;;;;;;1.10;0.77;;;15.30;99.90;;;;;;6138966;28;20070;-81
2023/03/13 09:13:21;;;;;;;2.95;0.70;;;15.40;99.90;;;;;;6140244;28;20098;-84
2023/03/13 09:16:27;;;;;;;0.98;0.70;;;15.60;99.90;;;;;;6138877;28;20496;-82
2023/03/13 09:19:28;;;;;;;2.63;0.88;;;16.10;99.90;;;;;;6143440;28;20043;-83
2023/03/13 09:22:30;;;;;;;1.20;0.80;;;16.60;99.90;;;;;;6144572;28;20047;-84
2023/03/13 09:25:32;;;;;;;1.25;0.88;;;17.40;99.90;;;;;;6145078;28;20047;-83
2023/03/13 09:28:34;;;;;;;1.35;1.13;;;18.00;99.90;;;;;;6141437;28;20047;-86
2023/03/13 09:31:38;;;;;;;1.50;1.05;;;18.30;99.90;;;;;;6139690;28;20043;-84
2023/03/13 09:34:39;;;;;;;1.13;1.02;;;18.40;99.90;;;;;;6140006;28;20066;-85
2023/03/13 09:37:41;;;;;;;3.10;1.10;;;18.20;99.90;;;;;;6120097;29;20387;-83
2023/03/13 09:40:47;;;;;;;1.10;0.82;;;18.10;99.90;;;;;;6134355;28;20512;-84
2023/03/13 09:43:53;;;;;;;1.40;0.80;;;18.10;99.90;;;;;;6140824;28;20446;-83
2023/03/13 09:47:01;;;;;;;3.20;1.08;;;18.00;99.90;;;;;;6138046;28;20047;-83
2023/03/13 09:50:07;;;;;;;3.47;0.80;;;18.00;99.90;;;;;;6121506;29;20058;-85
2023/03/13 09:53:14;;;;;;;1.23;0.90;;;17.90;99.90;;;;;;6139295;28;20066;-84
2023/03/13 09:56:20;;;;;;;3.30;1.02;;;17.80;99.90;;;;;;6141455;28;20417;-85
2023/03/13 09:59:28;;;;;;;0.60;0.60;;;17.60;99.90;;;;;;6140388;28;20046;-83
2023/03/13 10:02:33;;;;;;;1.38;1.10;;;17.60;99.90;;;;;;6139660;28;20058;-83
2023/03/13 10:05:35;;;;;;;0.98;0.98;;;17.50;99.90;;;;;;6140189;28;20050;-84
2023/03/13 10:08:36;;;;;;;2.42;0.93;;;17.50;99.90;;;;;;6126810;28;21368;-84
2023/03/13 10:11:44;;;;;;;6.97;1.45;;;17.60;99.90;;;;;;6120907;29;20524;-83
2023/03/13 10:14:53;;;;;;;2.00;1.27;;;17.70;99.90;;;;;;6121831;29;20056;-85
2023/03/13 10:17:58;;;;;;;2.22;1.00;;;17.70;99.90;;;;;;6143638;28;20047;-85
2023/03/13 10:21:12;;;;;;;2.58;1.92;;;17.70;99.90;;;;;;6144406;28;20047;-86
2023/03/13 10:24:23;;;;;;;4.00;1.23;;;17.70;99.90;;;;;;6142378;28;20044;-85
2023/03/13 10:27:24;;;;;;;2.65;1.52;;;17.90;99.90;;;;;;6143848;28;20055;-84
2023/03/13 10:30:29;;;;;;;1.80;0.88;;;18.00;99.90;;;;;;6141346;28;20055;-84
2023/03/13 10:33:34;;;;;;;1.10;0.95;;;18.10;99.90;;;;;;6139333;28;20047;-85
2023/03/13 10:36:41;;;;;;;2.78;0.93;;;18.10;99.90;;;;;;6142946;28;20047;-84
2023/03/13 10:39:43;;;;;;;1.20;1.10;;;18.20;99.90;;;;;;6134505;28;20399;-86
2023/03/13 10:42:45;;;;;;;2.28;1.20;;;18.10;99.90;;;;;;6119449;29;20044;-86
2023/03/13 10:45:48;;;;;;;1.52;1.38;;;17.90;99.90;;;;;;6140765;28;20048;-85
2023/03/13 10:48:54;;;;;;;2.38;1.35;;;17.90;99.90;;;;;;6140876;28;20059;-85
2023/03/13 10:52:03;;;;;;;3.15;1.33;;;18.30;99.90;;;;;;6140542;28;20501;-83
2023/03/13 10:55:10;;;;;;;2.05;0.85;;;18.80;99.90;;;;;;6134394;28;20082;-86
2023/03/13 10:58:20;;;;;;;2.05;1.05;;;19.30;99.40;;;;;;6119461;29;20051;-87
2023/03/13 11:01:24;;;;;;;2.00;1.30;;;19.70;98.60;;;;;;6116316;29;20052;-85
2023/03/13 11:04:32;;;;;;;1.65;1.30;;;19.90;98.00;;;;;;6116501;29;20078;-86
2023/03/13 11:07:37;;;;;;;4.45;1.05;;;20.30;97.20;;;;;;6115583;28;20436;-85
2023/03/13 11:10:53;;;;;;;1.85;1.33;;;20.70;96.60;;;;;;6117266;29;20115;-84
2023/03/13 11:13:55;;;;;;;3.20;1.20;;;21.00;96.00;;;;;;6146440;28;20131;-84
2023/03/13 11:17:03;;;;;;;3.47;1.02;;;21.30;95.50;;;;;;6149102;28;20054;-85
2023/03/13 11:20:15;;;;;;;2.33;0.90;;;21.40;94.40;;;;;;6145594;28;20071;-86
2023/03/13 11:23:21;;;;;;;1.05;0.75;;;21.30;94.30;;;;;;6145058;28;20046;-85
2023/03/13 11:26:32;;;;;;;2.40;1.20;;;21.50;94.00;;;;;;6146484;28;20048;-86
2023/03/13 11:29:42;;;;;;;2.10;0.95;;;21.80;93.60;;;;;;6122923;29;20050;-85
2023/03/13 11:32:51;;;;;;;3.22;1.58;;;22.00;92.70;;;;;;6141003;28;20490;-84
2023/03/13 11:36:01;;;;;;;4.32;1.35;;;22.00;92.40;;;;;;6142243;28;20043;-85
2023/03/13 11:39:20;;;;;;;1.20;0.90;;;22.40;92.40;;;;;;6147173;28;20047;-86
2023/03/13 11:42:42;;;;;;;3.33;1.88;;;22.60;91.50;;;;;;6149160;28;20050;-86
2023/03/13 11:46:03;;;;;;;1.10;0.98;;;23.00;91.30;;;;;;6146617;28;20051;-85
2023/03/13 11:49:19;;;;;;;1.73;0.90;;;23.20;90.60;;;;;;6137606;28;20532;-85
2023/03/13 11:52:37;;;;;;;2.90;1.00;;;23.20;89.40;;;;;;6148132;28;20047;-84
2023/03/13 11:55:49;;;;;;;2.28;0.95;;;23.00;88.80;;;;;;6148208;28;20043;-85
2023/03/13 11:59:02;;;;;;;4.00;0.75;;;22.60;88.50;;;;;;6145811;28;20063;-85
2023/03/13 12:02:13;;;;;;;2.55;1.23;;;22.20;89.00;;;;;;6144528;28;20047;-85
2023/03/13 12:05:18;;;;;;;4.43;1.05;;;21.90;89.40;;;;;;6148321;28;20047;-84
2023/03/13 12:08:26;;;;;;;4.22;1.00;;;21.70;90.10;;;;;;6145167;28;20048;-85
2023/03/13 12:11:33;;;;;;;2.47;0.93;;;21.70;90.20;;;;;;6149754;28;20043;-86
2023/03/13 12:14:39;;;;;;;2.03;0.98;;;21.70;89.80;;;;;;6141800;28;20455;-84
2023/03/13 12:17:45;;;;;;;1.17;0.90;;;21.60;89.90;;;;;;6143406;28;20039;-86
2023/03/13 12:20:56;;;;;;;3.38;1.35;;;21.50;89.50;;;;;;6146923;28;20047;-84
2023/03/13 12:24:05;;;;;;;3.67;1.30;;;21.50;90.10;;;;;;6134420;28;20062;-86
2023/03/13 12:27:15;;;;;;;1.90;1.13;;;21.40;89.50;;;;;;6122165;28;20062;-84
2023/03/13 12:30:35;;;;;;;1.23;0.80;;;21.60;89.70;;;;;;6142274;28;20047;-86
2023/03/13 12:33:42;;;;;;;1.90;1.40;;;21.90;88.80;;;;;;6122536;29;20044;-86
2023/03/13 12:36:49;;;;;;;1.65;0.93;;;22.10;87.90;;;;;;6133576;28;20043;-85
2023/03/13 12:39:58;;;;;;;1.77;1.07;;;22.30;86.50;;;;;;6139818;28;20063;-87
2023/03/13 12:43:05;;;;;;;1.35;0.95;;;22.50;85.90;;;;;;6127677;28;20051;-85
2023/03/13 12:46:39;;;;;;;1.30;0.93;;;22.70;85.50;;;;;;6146428;28;20062;-85
2023/03/13 12:50:02;;;;;;;10.40;9.35;;;22.90;85.00;;;;;;6145144;28;20047;-85
2023/03/13 12:53:38;;;;;;;1.30;0.90;;;23.30;84.50;;;;;;6139611;28;20044;-84
2023/03/13 12:57:00;;;;;;;1.27;0.80;;;23.70;82.70;;;;;;6142691;28;20047;-86
2023/03/13 13:00:10;;;;;;;0.82;0.80;;;23.80;82.80;;;;;;6147284;28;20043;-85
2023/03/13 13:03:24;;;;;;;0.85;0.73;;;23.80;80.60;;;;;;6147628;28;20191;-85
2023/03/13 13:06:28;;;;;;;2.50;1.45;;;23.40;80.50;;;;;;6147499;28;20056;-85
2023/03/13 13:09:31;;;;;;;4.03;1.90;;;23.30;80.70;;;;;;6131011;29;20049;-86
2023/03/13 13:12:35;;;;;;;5.05;2.35;;;23.30;80.70;;;;;;6143896;28;20043;-87
2023/03/13 13:15:44;;;;;;;9.85;7.20;;;23.40;80.20;;;;;;6149866;28;20047;-87
2023/03/13 13:18:45;;;;;;;1.20;1.05;;;23.40;80.30;;;;;;6147584;29;20051;-88
2023/03/13 13:22:07;;;;;;;1.42;1.30;;;23.50;80.20;;;;;;6146777;28;20417;-86
2023/03/13 13:25:29;;;;;;;1.88;1.77;;;23.40;79.10;;;;;;6116180;29;20092;-86
2023/03/13 13:28:35;;;;;;;1.90;1.80;;;23.60;79.00;;;;;;6117923;29;20066;-87
2023/03/13 13:31:58;;;;;;;2.78;1.15;;;24.00;77.30;;;;;;6121596;29;20057;-84
2023/03/13 13:35:06;;;;;;;1.23;1.10;;;24.30;75.70;;;;;;6124190;28;20468;-84
2023/03/13 13:38:35;;;;;;;1.10;0.82;;;24.80;75.50;;;;;;6124825;29;20054;-85
2023/03/13 13:41:37;;;;;;;2.97;0.60;;;25.00;74.30;;;;;;6119997;29;20055;-88
2023/03/13 13:44:57;;;;;;;1.17;0.65;;;25.00;73.00;;;;;;6121151;29;20039;-85
2023/03/13 13:48:29;;;;;;;0.95;0.60;;;25.10;72.40;;;;;;6122394;29;20058;-84
2023/03/13 13:51:31;;;;;;;13.30;10.23;;;25.30;71.90;;;;;;6093671;29;20588;-87
2023/03/13 13:54:53;;;;;;;1.42;0.90;;;25.70;71.00;;;;;;6122941;29;20051;-87
2023/03/13 13:57:59;;;;;;;1.67;0.88;;;25.70;69.80;;;;;;6106095;29;20063;-84
2023/03/13 14:01:09;;;;;;;1.88;1.00;;;25.70;68.60;;;;;;6106357;29;20054;-86
2023/03/13 14:04:15;;;;;;;1.98;1.25;;;25.50;68.80;;;;;;6105811;29;20044;-85
2023/03/13 14:07:21;;;;;;;1.50;0.60;;;25.50;67.90;;;;;;6105949;29;20043;-88
2023/03/13 14:10:37;;;;;;;4.45;2.15;;;25.50;68.10;;;;;;6105812;29;20419;-85
2023/03/13 14:13:39;;;;;;;1.08;0.93;;;25.40;68.10;;;;;;6104796;29;20067;-86
2023/03/13 14:16:46;;;;;;;6.43;1.38;;;25.40;67.70;;;;;;6103990;29;20059;-86
2023/03/13 14:19:49;;;;;;;2.33;0.85;;;25.10;67.30;;;;;;6105221;29;20060;-85
2023/03/13 14:22:52;;;;;;;12.45;1.38;;;25.00;67.60;;;;;;6109893;29;20048;-85
2023/03/13 14:25:54;;;;;;;1.17;0.60;;;25.00;66.80;;;;;;6129498;29;20060;-87
2023/03/13 14:28:58;;;;;;;2.90;0.77;;;25.10;67.00;;;;;;6133655;28;20140;-87
2023/03/13 14:32:01;;;;;;;2.05;0.80;;;25.30;65.90;;;;;;6145663;28;20081;-86
2023/03/13 14:35:05;;;;;;;1.60;1.10;;;25.40;65.70;;;;;;6148442;28;20054;-85
2023/03/13 14:38:07;;;;;;;5.10;4.03;;;25.40;65.50;;;;;;6147158;28;20051;-84
2023/03/13 14:41:24;;;;;;;1.40;0.93;;;25.80;65.40;;;;;;6143531;28;20054;-85
2023/03/13 14:44:28;;;;;;;3.67;3.38;;;26.10;64.60;;;;;;6142399;28;20043;-87
2023/03/13 14:47:31;;;;;;;1.38;0.90;;;26.00;64.00;;;;;;6141258;28;20044;-84
2023/03/13 14:50:35;;;;;;;0.90;0.80;;;25.80;63.80;;;;;;6148942;28;20194;-86
2023/03/13 14:53:37;;;;;;;1.50;0.68;;;25.70;64.00;;;;;;6145585;28;20082;-87
2023/03/13 14:56:41;;;;;;;5.80;0.65;;;25.70;63.50;;;;;;6147613;28;20050;-87
2023/03/13 14:59:43;;;;;;;1.45;0.73;;;25.60;63.90;;;;;;6148949;28;20512;-86
2023/03/13 15:02:47;;;;;;;4.47;4.07;;;25.60;63.70;;;;;;6150563;28;20047;-86
2023/03/13 15:05:50;;;;;;;4.80;2.58;;;25.70;63.40;;;;;;6156249;28;20035;-87
2023/03/13 15:09:13;;;;;;;4.80;0.80;;;25.40;63.50;;;;;;6157674;29;20047;-90
2023/03/13 15:12:17;;;;;;;4.22;2.78;;;25.40;63.80;;;;;;6166818;28;20052;-87
2023/03/13 15:15:19;;;;;;;3.10;0.98;;;25.30;63.80;;;;;;6172205;28;20073;-88
2023/03/13 15:18:26;;;;;;;4.13;2.33;;;25.40;63.80;;;;;;6171356;28;20043;-86
2023/03/13 15:21:30;;;;;;;0.63;0.35;;;25.30;64.80;;;;;;6173894;28;20379;-88
2023/03/13 15:24:32;;;;;;;1.38;0.60;;;25.10;64.10;;;;;;6170864;28;20043;-86
2023/03/13 15:27:33;;;;;;;1.02;0.75;;;24.60;64.80;;;;;;6172099;28;20226;-85
2023/03/13 15:30:38;;;;;;;1.52;0.77;;;24.40;65.80;;;;;;6176002;28;20066;-85
2023/03/13 15:33:42;;;;;;;3.75;2.78;;;24.10;66.20;;;;;;6175062;28;20650;-85
2023/03/13 15:36:44;;;;;;;1.15;0.60;;;23.90;66.80;;;;;;6176305;28;20043;-85
2023/03/13 15:39:46;;;;;;;0.82;0.40;;;23.60;67.20;;;;;;6172233;28;20420;-86
2023/03/13 15:42:50;;;;;;;3.63;0.95;;;23.40;67.70;;;;;;6170130;28;20061;-85
2023/03/13 15:45:52;;;;;;;0.70;0.38;;;23.10;68.30;;;;;;6172925;28;20065;-85
2023/03/13 15:48:59;;;;;;;3.13;0.82;;;22.90;68.40;;;;;;6173647;28;20134;-84
2023/03/13 15:52:01;;;;;;;2.38;0.93;;;22.70;69.00;;;;;;6169348;28;20050;-87
2023/03/13 15:55:12;;;;;;;4.68;0.50;;;22.60;69.30;;;;;;6176303;28;20050;-87
2023/03/13 15:58:15;;;;;;;2.72;1.08;;;22.50;69.60;;;;;;6173549;28;20520;-86
2023/03/13 16:01:18;;;;;;;4.38;0.70;;;22.40;69.90;;;;;;6173394;28;20058;-86